Time;durP1;ratioP1;P1;durP2;ratioP2;P2;SDS_P1;SDS_P2;PMS_P1;PMS_P2;Temp;Humidity;BMP_temperature;BMP_pressure;BME280_temperature;BME280_humidity;BME280_pressure;Samples;Min_cycle;Max_cycle;Signal;HPM_P1;HPM_P2
2024/03/05 00:01:37;;;;;;;33.40;20.20;;;;;;;3.13;75.17;99490.26;107386;1254;73886;-40
2024/03/05 00:04:05;;;;;;;38.30;20.10;;;;;;;3.13;75.19;99484.09;107478;1254;67607;-40
2024/03/05 00:06:33;;;;;;;31.60;19.60;;;;;;;3.12;75.04;99487.96;107504;1253;70764;-40
2024/03/05 00:09:00;;;;;;;38.10;22.10;;;;;;;3.08;75.22;99485.23;107507;1254;60389;-39
2024/03/05 00:11:28;;;;;;;38.60;20.80;;;;;;;3.03;75.29;99487.27;107531;1254;59163;-39
2024/03/05 00:13:55;;;;;;;41.30;21.20;;;;;;;3.01;75.48;99485.23;107487;1254;73384;-40
2024/03/05 00:16:23;;;;;;;36.90;20.30;;;;;;;3.00;75.64;99488.14;107499;1253;67898;-40
2024/03/05 00:18:53;;;;;;;37.90;20.60;;;;;;;2.99;75.84;99486.15;107468;1253;72674;-39
2024/03/05 00:21:21;;;;;;;35.50;21.40;;;;;;;2.96;75.72;99484.23;107496;1254;60398;-39
2024/03/05 00:23:50;;;;;;;38.40;20.60;;;;;;;2.91;76.00;99481.16;107503;1254;60221;-40
2024/03/05 00:26:18;;;;;;;37.60;20.80;;;;;;;2.91;76.19;99481.15;107513;1254;71647;-39
2024/03/05 00:28:46;;;;;;;32.40;19.70;;;;;;;2.93;76.21;99478.75;107490;1254;67935;-39
2024/03/05 00:31:13;;;;;;;40.20;22.80;;;;;;;2.94;76.11;99482.16;107572;1254;73142;-40
2024/03/05 00:33:41;;;;;;;35.90;20.10;;;;;;;2.92;76.23;99482.89;107519;1254;60428;-39
2024/03/05 00:36:09;;;;;;;35.60;20.60;;;;;;;2.92;76.18;99478.39;107519;1254;60380;-39
2024/03/05 00:38:36;;;;;;;35.50;20.50;;;;;;;2.94;76.28;99477.70;107510;1258;73906;-40
2024/03/05 00:41:06;;;;;;;37.30;21.40;;;;;;;2.96;76.20;99478.81;106081;1254;1003386;-40
2024/03/05 00:43:33;;;;;;;36.80;21.60;;;;;;;2.94;76.19;99474.34;107467;1254;72998;-39
2024/03/05 00:46:01;;;;;;;35.30;20.90;;;;;;;2.91;76.20;99473.33;107480;1254;60917;-39
2024/03/05 00:48:29;;;;;;;37.30;21.90;;;;;;;2.90;76.14;99473.23;107470;1254;59582;-40
2024/03/05 00:50:56;;;;;;;36.00;21.30;;;;;;;2.92;76.12;99474.38;107501;1253;72663;-39
2024/03/05 00:53:24;;;;;;;35.00;21.60;;;;;;;2.93;76.21;99475.46;107510;1254;67601;-39
2024/03/05 00:55:51;;;;;;;36.00;22.30;;;;;;;2.92;76.16;99477.32;107521;1254;70461;-40
2024/03/05 00:58:20;;;;;;;41.60;22.20;;;;;;;2.90;76.16;99478.38;107479;1254;60865;-40
2024/03/05 01:00:48;;;;;;;33.30;20.60;;;;;;;2.92;76.19;99476.05;107527;1254;60071;-39
2024/03/05 01:03:15;;;;;;;35.50;21.20;;;;;;;2.93;76.23;99475.15;107502;1254;72610;-39
2024/03/05 01:05:43;;;;;;;37.40;22.70;;;;;;;2.92;76.46;99476.02;107535;1254;67566;-39
2024/03/05 01:08:11;;;;;;;36.70;22.10;;;;;;;2.90;76.65;99471.10;107480;1254;72747;-39
2024/03/05 01:10:39;;;;;;;33.20;21.30;;;;;;;2.91;76.43;99474.34;107484;1258;59819;-39
2024/03/05 01:13:07;;;;;;;35.60;21.30;;;;;;;2.92;76.33;99469.28;107535;1254;60975;-39
2024/03/05 01:15:35;;;;;;;33.30;21.90;;;;;;;2.93;76.07;99468.69;107479;1254;72878;-39
2024/03/05 01:18:03;;;;;;;35.40;22.80;;;;;;;2.89;76.28;99465.36;107436;1254;66969;-39
2024/03/05 01:20:31;;;;;;;38.30;23.10;;;;;;;2.84;76.58;99463.88;107360;1254;72823;-39
2024/03/05 01:22:58;;;;;;;40.20;22.10;;;;;;;2.84;76.27;99465.37;107315;1254;59947;-39
2024/03/05 01:25:26;;;;;;;35.50;22.10;;;;;;;2.87;76.34;99465.55;107511;1254;59448;-39
2024/03/05 01:27:54;;;;;;;38.60;22.90;;;;;;;2.87;76.33;99469.73;107590;1253;73446;-39
2024/03/05 01:30:22;;;;;;;36.40;22.60;;;;;;;2.84;76.44;99464.09;107602;1254;67922;-39
2024/03/05 01:32:51;;;;;;;42.30;23.30;;;;;;;2.82;76.49;99468.52;107492;1254;72676;-39
2024/03/05 01:35:21;;;;;;;39.00;21.80;;;;;;;2.82;76.57;99472.59;107605;1253;60400;-39
2024/03/05 01:37:49;;;;;;;36.10;21.90;;;;;;;2.84;76.47;99475.29;107610;1256;60566;-39
2024/03/05 01:40:19;;;;;;;38.70;24.30;;;;;;;2.86;76.49;99474.15;107614;1253;73831;-39
2024/03/05 01:42:47;;;;;;;41.00;24.40;;;;;;;2.84;76.51;99477.30;107519;1254;67920;-39
2024/03/05 01:45:18;;;;;;;40.60;23.70;;;;;;;2.82;76.53;99475.80;107499;1259;71435;-39
2024/03/05 01:47:47;;;;;;;38.60;23.30;;;;;;;2.83;76.57;99481.08;107618;1254;60949;-39
2024/03/05 01:50:16;;;;;;;37.10;21.00;;;;;;;2.85;76.45;99486.98;107642;1253;60294;-39
2024/03/05 01:52:43;;;;;;;42.20;25.50;;;;;;;2.85;76.60;99486.34;107572;1254;72527;-38
2024/03/05 01:55:13;;;;;;;43.30;26.60;;;;;;;2.82;76.71;99490.35;107590;1254;67562;-39
2024/03/05 01:57:41;;;;;;;41.40;24.50;;;;;;;2.79;76.56;99493.92;107581;1254;70481;-39
2024/03/05 02:00:15;;;;;;;36.20;23.80;;;;;;;2.79;76.51;99491.35;107503;1253;60908;-39
2024/03/05 02:02:43;;;;;;;37.00;23.80;;;;;;;2.80;76.48;99491.02;107464;1254;60462;-39
2024/03/05 02:05:12;;;;;;;43.80;25.90;;;;;;;2.77;76.43;99490.81;107318;1254;73885;-39
2024/03/05 02:07:40;;;;;;;40.10;24.60;;;;;;;2.71;76.80;99490.05;107572;1254;67923;-40
2024/03/05 02:10:08;;;;;;;39.90;24.80;;;;;;;2.70;76.67;99485.80;107564;1253;72679;-38
2024/03/05 02:12:42;;;;;;;40.50;25.00;;;;;;;2.71;76.69;99490.36;107502;1254;60512;-39
2024/03/05 02:15:11;;;;;;;42.80;25.00;;;;;;;2.71;76.52;99490.43;107500;1254;60418;-39
2024/03/05 02:17:39;;;;;;;40.80;19.80;;;;;;;2.67;76.78;99492.23;107579;1254;73862;-39
2024/03/05 02:20:09;;;;;;;36.00;23.40;;;;;;;2.64;76.77;99488.12;107508;1254;67755;-39
2024/03/05 02:22:37;;;;;;;42.10;25.00;;;;;;;2.65;76.85;99491.69;107572;1254;72667;-39
2024/03/05 02:25:06;;;;;;;40.00;24.90;;;;;;;2.66;77.07;99485.58;107491;1254;60875;-39
2024/03/05 02:27:34;;;;;;;41.00;25.30;;;;;;;2.65;76.93;99486.08;107598;1254;60405;-39
2024/03/05 02:30:02;;;;;;;41.40;25.40;;;;;;;2.61;76.97;99486.02;107319;1253;74218;-39
2024/03/05 02:32:30;;;;;;;40.90;25.10;;;;;;;2.58;77.21;99484.95;107509;1254;67998;-40
2024/03/05 02:34:58;;;;;;;41.10;25.30;;;;;;;2.57;77.25;99483.09;107533;1254;72855;-40
2024/03/05 02:37:26;;;;;;;38.80;24.20;;;;;;;2.58;77.25;99484.19;107536;1259;60367;-40
2024/03/05 02:39:54;;;;;;;41.90;25.10;;;;;;;2.55;77.31;99486.50;107543;1253;60086;-40
2024/03/05 02:42:22;;;;;;;38.70;25.30;;;;;;;2.52;77.41;99490.23;107504;1254;72544;-40
2024/03/05 02:44:50;;;;;;;43.30;26.10;;;;;;;2.51;77.34;99487.80;107533;1253;67579;-39
2024/03/05 02:47:17;;;;;;;42.50;24.60;;;;;;;2.52;77.25;99490.32;107554;1253;71777;-40
2024/03/05 02:49:45;;;;;;;40.30;23.90;;;;;;;2.54;77.11;99484.73;107453;1254;60636;-40
2024/03/05 02:52:13;;;;;;;40.40;25.30;;;;;;;2.53;77.20;99486.60;107551;1254;60420;-40
2024/03/05 02:54:41;;;;;;;41.20;24.50;;;;;;;2.48;77.16;99483.05;107596;1253;73859;-40
2024/03/05 02:57:09;;;;;;;37.20;24.50;;;;;;;2.44;77.27;99483.23;107585;1257;66782;-40
2024/03/05 02:59:36;;;;;;;38.60;24.40;;;;;;;2.43;77.16;99483.73;107544;1254;71156;-40
2024/03/05 03:02:05;;;;;;;45.50;25.60;;;;;;;2.43;77.23;99486.77;107563;1257;60437;-39
2024/03/05 03:04:32;;;;;;;41.20;25.70;;;;;;;2.38;77.36;99487.06;107575;1254;60447;-39
2024/03/05 03:07:00;;;;;;;36.10;24.40;;;;;;;2.35;77.54;99485.64;107501;1254;73849;-40
2024/03/05 03:09:28;;;;;;;42.50;23.60;;;;;;;2.33;77.60;99483.98;107554;1254;67618;-39
2024/03/05 03:11:56;;;;;;;39.10;24.70;;;;;;;2.33;77.49;99482.41;107458;1259;72745;-39
2024/03/05 03:14:24;;;;;;;42.30;26.50;;;;;;;2.32;77.63;99483.83;107582;1254;60499;-40
2024/03/05 03:16:52;;;;;;;45.70;26.70;;;;;;;2.29;77.72;99479.92;107539;1254;59252;-40
2024/03/05 03:19:20;;;;;;;40.00;25.00;;;;;;;2.26;77.86;99484.12;107501;1257;73818;-39
2024/03/05 03:21:47;;;;;;;38.80;24.60;;;;;;;2.24;77.99;99482.17;107496;1254;67601;-40
2024/03/05 03:24:15;;;;;;;42.50;24.80;;;;;;;2.25;77.90;99486.08;107541;1254;71447;-40
2024/03/05 03:26:44;;;;;;;39.00;26.50;;;;;;;2.22;78.02;99484.05;107506;1253;60431;-39
2024/03/05 03:29:13;;;;;;;40.60;25.70;;;;;;;2.16;78.16;99488.31;107576;1254;60426;-39
2024/03/05 03:31:45;;;;;;;37.10;24.00;;;;;;;2.13;78.36;99492.81;107550;1254;74290;-40
2024/03/05 03:34:16;;;;;;;37.30;25.30;;;;;;;2.14;78.54;99491.66;107593;1254;67557;-40
2024/03/05 03:36:44;;;;;;;43.30;26.50;;;;;;;2.17;78.55;99487.25;107593;1254;71708;-39
2024/03/05 03:39:12;;;;;;;44.10;26.70;;;;;;;2.17;78.45;99490.09;107558;1254;59569;-39
2024/03/05 03:41:39;;;;;;;41.60;25.10;;;;;;;2.14;78.54;99489.77;107553;1254;60317;-39
2024/03/05 03:44:07;;;;;;;36.40;25.00;;;;;;;2.15;78.60;99491.31;107567;1254;73842;-39
2024/03/05 03:46:35;;;;;;;39.10;25.10;;;;;;;2.16;78.61;99491.94;107530;1254;66624;-40
2024/03/05 03:49:04;;;;;;;37.10;25.40;;;;;;;2.17;78.73;99492.06;107479;1254;72678;-40
2024/03/05 03:51:32;;;;;;;42.90;25.40;;;;;;;2.14;78.82;99493.73;107512;1254;60379;-39
2024/03/05 03:54:00;;;;;;;40.20;24.00;;;;;;;2.11;78.98;99494.08;107585;1253;60392;-39
2024/03/05 03:56:27;;;;;;;46.50;25.50;;;;;;;2.11;79.07;99490.17;107509;1254;72557;-40
2024/03/05 03:58:56;;;;;;;39.20;25.20;;;;;;;2.12;78.80;99490.73;107506;1254;68013;-40
2024/03/05 04:01:25;;;;;;;39.80;24.90;;;;;;;2.11;79.05;99495.09;107599;1254;71124;-40
2024/03/05 04:03:52;;;;;;;35.60;20.30;;;;;;;2.08;79.25;99500.11;106004;1254;1003490;-39
2024/03/05 04:06:20;;;;;;;38.90;24.60;;;;;;;2.08;79.07;99503.27;107514;1254;60020;-40
2024/03/05 04:08:48;;;;;;;38.20;24.70;;;;;;;2.11;78.98;99502.58;107518;1254;73837;-40
2024/03/05 04:11:15;;;;;;;38.60;24.30;;;;;;;2.13;78.95;99504.61;107520;1254;67580;-39
2024/03/05 04:13:43;;;;;;;42.90;26.00;;;;;;;2.11;78.91;99504.88;107580;1253;72657;-40
2024/03/05 04:16:11;;;;;;;36.70;23.90;;;;;;;2.10;78.86;99506.94;107556;1254;60919;-40
2024/03/05 04:18:39;;;;;;;38.10;24.10;;;;;;;2.11;78.69;99506.10;107532;1254;60035;-40
2024/03/05 04:21:06;;;;;;;42.80;24.40;;;;;;;2.14;78.79;99503.48;107506;1254;72825;-40
2024/03/05 04:23:34;;;;;;;44.90;25.70;;;;;;;2.12;78.69;99505.84;107555;1254;66486;-40
2024/03/05 04:26:08;;;;;;;39.50;26.40;;;;;;;2.09;78.71;99507.90;107472;1258;70543;-40
2024/03/05 04:28:49;;;;;;;37.10;24.50;;;;;;;2.10;78.64;99512.06;107563;1254;60909;-40
2024/03/05 04:31:17;;;;;;;41.30;24.20;;;;;;;2.13;78.60;99515.45;107591;1254;60290;-40
2024/03/05 04:33:47;;;;;;;38.80;26.20;;;;;;;2.14;78.64;99516.63;107521;1254;72868;-40
2024/03/05 04:36:16;;;;;;;43.80;25.60;;;;;;;2.12;78.56;99522.26;105317;1253;1003496;-40
2024/03/05 04:38:43;;;;;;;39.80;25.10;;;;;;;2.13;78.50;99517.73;107577;1253;72702;-40
2024/03/05 04:41:11;;;;;;;39.80;23.40;;;;;;;2.17;78.32;99520.42;107563;1254;60236;-40
2024/03/05 04:43:39;;;;;;;39.90;25.50;;;;;;;2.22;78.24;99522.31;107583;1254;60568;-40
2024/03/05 04:46:07;;;;;;;40.70;26.20;;;;;;;2.17;78.08;99518.40;107637;1254;73808;-40
2024/03/05 04:48:35;;;;;;;45.40;26.00;;;;;;;2.18;77.94;99525.11;107574;1254;67628;-40
2024/03/05 04:51:03;;;;;;;38.40;23.30;;;;;;;2.10;78.00;99515.77;107546;1254;71190;-40
2024/03/05 04:53:30;;;;;;;36.70;23.40;;;;;;;2.22;77.94;99530.21;107516;1253;60873;-39
2024/03/05 04:55:58;;;;;;;36.80;23.50;;;;;;;2.33;77.90;99534.09;107481;1253;60060;-39
2024/03/05 04:58:25;;;;;;;37.70;25.20;;;;;;;2.43;77.68;99532.96;107388;1253;73870;-40
2024/03/05 05:00:53;;;;;;;39.00;24.40;;;;;;;2.52;77.65;99536.51;107534;1254;67908;-40
2024/03/05 05:03:21;;;;;;;45.50;27.00;;;;;;;2.60;77.29;99532.17;107402;1253;72713;-39
2024/03/05 05:05:48;;;;;;;45.00;27.60;;;;;;;2.63;76.76;99531.61;107506;1254;60444;-39
2024/03/05 05:08:19;;;;;;;45.50;26.30;;;;;;;2.64;76.26;99534.12;107538;1253;59584;-40
2024/03/05 05:10:47;;;;;;;39.10;24.30;;;;;;;2.67;76.29;99536.83;107525;1254;72726;-40
2024/03/05 05:13:15;;;;;;;39.90;24.20;;;;;;;2.74;75.99;99539.02;107422;1258;67555;-39
2024/03/05 05:15:43;;;;;;;41.60;25.40;;;;;;;2.83;75.83;99543.91;107515;1254;72661;-39
2024/03/05 05:18:13;;;;;;;43.70;26.60;;;;;;;2.91;76.06;99545.11;107550;1253;60389;-39
2024/03/05 05:20:41;;;;;;;45.00;27.30;;;;;;;2.98;75.95;99549.24;107667;1253;60425;-39
2024/03/05 05:23:08;;;;;;;45.10;28.30;;;;;;;3.07;75.78;99549.54;107486;1253;73841;-38
2024/03/05 05:25:38;;;;;;;44.20;27.40;;;;;;;3.13;75.57;99547.94;107593;1254;67656;-39
2024/03/05 05:28:05;;;;;;;43.20;26.20;;;;;;;3.22;75.14;99553.51;107566;1257;72732;-39
2024/03/05 05:30:33;;;;;;;42.50;26.50;;;;;;;3.31;74.85;99540.73;107452;1254;60902;-38
2024/03/05 05:33:01;;;;;;;44.20;28.40;;;;;;;3.35;74.48;99543.05;107406;1254;60335;-39
2024/03/05 05:35:29;;;;;;;49.90;29.70;;;;;;;3.33;74.38;99543.81;107599;1254;73850;-39
2024/03/05 05:37:57;;;;;;;48.40;29.30;;;;;;;3.33;74.39;99544.27;107588;1254;66997;-38
2024/03/05 05:40:25;;;;;;;45.70;28.90;;;;;;;3.37;74.59;99547.45;107501;1254;72711;-38
2024/03/05 05:42:52;;;;;;;42.50;26.90;;;;;;;3.44;74.55;99550.58;107516;1253;60890;-39
2024/03/05 05:45:22;;;;;;;39.10;25.60;;;;;;;3.55;74.34;99555.33;107507;1254;60524;-39
2024/03/05 05:47:56;;;;;;;;;;;;;;;3.66;73.47;99554.08;107592;1253;74928;-38
2024/03/05 05:50:31;;;;;;;47.20;27.00;;;;;;;3.67;73.13;99555.32;107582;1254;67553;-39
2024/03/05 05:52:59;;;;;;;45.10;28.60;;;;;;;3.70;73.52;99551.23;107560;1254;70132;-39
2024/03/05 05:55:28;;;;;;;41.90;27.40;;;;;;;3.76;73.20;99553.22;107478;1254;60968;-38
2024/03/05 05:57:56;;;;;;;42.60;26.90;;;;;;;3.83;73.13;99549.11;107504;1254;60310;-39
2024/03/05 06:00:32;;;;;;;42.50;27.00;;;;;;;3.88;72.72;99548.84;107531;1254;73855;-39
2024/03/05 06:03:04;;;;;;;45.60;27.20;;;;;;;3.92;72.17;99549.09;107546;1257;67570;-40
2024/03/05 06:05:34;;;;;;;45.60;27.30;;;;;;;3.92;72.08;99548.64;107575;1253;72683;-39
2024/03/05 06:08:10;;;;;;;43.00;27.70;;;;;;;3.92;71.95;99549.84;107645;1254;61489;-39
2024/03/05 06:10:42;;;;;;;50.10;29.50;;;;;;;3.92;71.92;99543.74;107511;1254;60341;-40
2024/03/05 06:13:10;;;;;;;43.00;27.60;;;;;;;3.91;71.55;99542.78;107628;1254;73587;-40
2024/03/05 06:15:38;;;;;;;43.40;26.90;;;;;;;3.91;71.46;99541.02;107569;1257;66468;-39
2024/03/05 06:18:06;;;;;;;44.60;28.30;;;;;;;3.91;71.26;99541.92;107541;1254;72686;-39
2024/03/05 06:20:34;;;;;;;43.30;28.60;;;;;;;3.90;71.63;99542.59;107421;1254;190093;-39
2024/03/05 06:24:58;;;;;;;46.00;30.30;;;;;;;4.04;72.03;99543.06;104317;1290;600909;-40
2024/03/05 06:27:26;;;;;;;48.90;28.60;;;;;;;4.10;71.46;99541.42;106664;1264;61343;-39
2024/03/05 06:29:54;;;;;;;44.40;27.60;;;;;;;4.20;71.40;99541.88;106737;1269;59984;-40
2024/03/05 06:32:23;;;;;;;44.60;27.80;;;;;;;4.23;71.01;99528.92;105925;1264;1003698;-39
2024/03/05 06:34:51;;;;;;;44.50;28.40;;;;;;;4.35;70.60;99541.61;106627;1269;67568;-39
2024/03/05 06:37:18;;;;;;;46.20;28.90;;;;;;;4.38;70.38;99540.58;106723;1265;72673;-40
2024/03/05 06:39:47;;;;;;;44.70;30.60;;;;;;;4.42;70.43;99540.01;106623;1264;201255;-39
2024/03/05 06:42:14;;;;;;;53.90;32.00;;;;;;;4.47;70.39;99539.17;106810;1261;60043;-39
2024/03/05 06:44:47;;;;;;;48.10;29.20;;;;;;;4.55;70.18;99543.60;106794;1261;71102;-39
2024/03/05 06:47:16;;;;;;;46.20;29.20;;;;;;;4.64;69.71;99546.67;106786;1261;67994;-40
2024/03/05 06:49:44;;;;;;;48.30;31.20;;;;;;;4.65;69.25;99546.60;106863;1268;71758;-40
2024/03/05 06:57:46;;;;;;;52.40;31.60;;;;;;;4.75;69.17;99544.36;106871;1262;73314;-40
2024/03/05 07:00:15;;;;;;;48.20;30.90;;;;;;;4.85;68.94;99542.73;106871;1267;67570;-40
2024/03/05 07:02:43;;;;;;;49.30;29.30;;;;;;;4.92;68.74;99543.55;106894;1264;71052;-39
2024/03/05 07:05:11;;;;;;;52.80;29.80;;;;;;;4.98;68.61;99543.41;106832;1263;59643;-39
2024/03/05 07:07:39;;;;;;;48.30;30.10;;;;;;;5.07;68.80;99540.30;106759;1267;59601;-39
2024/03/05 07:10:13;;;;;;;59.10;32.30;;;;;;;5.21;68.66;99542.11;106873;1261;71841;-40
2024/03/05 07:12:44;;;;;;;47.70;29.40;;;;;;;5.37;68.22;99543.28;106908;1261;68859;-40
2024/03/05 07:15:14;;;;;;;44.50;27.50;;;;;;;5.54;67.55;99540.51;106906;1264;72714;-39
2024/03/05 07:17:43;;;;;;;;;;;;;;;5.67;66.96;99542.30;106901;1261;59630;-39
2024/03/05 07:20:18;;;;;;;47.30;28.30;;;;;;;5.76;66.72;99536.95;106959;1261;59789;-39
2024/03/05 07:22:46;;;;;;;39.00;27.00;;;;;;;5.83;66.66;99538.16;106950;1261;70794;-40
2024/03/05 07:25:17;;;;;;;44.80;29.20;;;;;;;5.89;66.01;99533.90;106957;1264;67592;-39
2024/03/05 07:27:46;;;;;;;39.40;27.60;;;;;;;5.93;65.88;99532.31;106935;1261;72172;-40
2024/03/05 07:30:18;;;;;;;42.90;25.90;;;;;;;5.98;65.68;99535.52;106878;1267;59712;-39
2024/03/05 07:32:46;;;;;;;42.60;25.90;;;;;;;6.07;65.50;99531.93;106925;1261;59491;-39
2024/03/05 07:35:16;;;;;;;40.80;25.10;;;;;;;6.17;65.14;99532.48;106928;1262;72179;-39
2024/03/05 07:37:47;;;;;;;43.40;27.00;;;;;;;6.22;64.57;99532.83;106892;1264;67785;-39
2024/03/05 07:40:17;;;;;;;42.90;26.30;;;;;;;6.23;63.97;99532.89;106793;1264;72708;-39
2024/03/05 07:42:53;;;;;;;41.40;26.90;;;;;;;6.23;64.13;99533.02;106795;1263;59739;-39
2024/03/05 07:45:22;;;;;;;40.30;28.20;;;;;;;6.24;63.97;99534.44;106860;1264;59683;-39
2024/03/05 07:47:50;;;;;;;38.00;27.10;;;;;;;6.22;63.82;99535.90;106862;1267;73175;-40
2024/03/05 07:50:17;;;;;;;47.30;27.80;;;;;;;6.20;63.63;99535.11;106902;1262;67589;-40
2024/03/05 07:52:46;;;;;;;48.80;27.40;;;;;;;6.19;63.52;99533.55;106879;1269;73694;-40
2024/03/05 07:55:18;;;;;;;46.80;26.10;;;;;;;6.19;63.73;99531.58;106901;1263;60103;-40
2024/03/05 07:57:58;;;;;;;46.10;26.60;;;;;;;6.30;63.62;99526.91;106784;1264;60318;-40
2024/03/05 08:00:26;;;;;;;46.10;27.30;;;;;;;6.43;63.70;99527.73;106854;1264;73326;-40
2024/03/05 08:02:53;;;;;;;53.20;27.30;;;;;;;6.58;63.40;99527.26;106847;1264;68388;-40
2024/03/05 08:05:21;;;;;;;45.80;27.10;;;;;;;6.77;63.16;99528.05;106832;1268;71162;-40
2024/03/05 08:07:50;;;;;;;49.30;27.50;;;;;;;7.00;62.61;99525.17;106805;1269;59860;-40
2024/03/05 08:10:17;;;;;;;45.90;26.10;;;;;;;7.22;61.65;99525.87;106882;1267;59611;-40
2024/03/05 08:12:48;;;;;;;37.60;25.10;;;;;;;7.40;60.81;99520.20;106863;1267;71875;-40
2024/03/05 08:15:16;;;;;;;43.50;27.00;;;;;;;7.58;60.19;99519.01;106851;1267;69144;-40
2024/03/05 08:17:50;;;;;;;44.60;25.10;;;;;;;7.72;59.56;99517.41;106885;1264;70836;-40
2024/03/05 08:20:25;;;;;;;42.30;24.60;;;;;;;7.85;59.01;99517.34;106899;1264;59640;-40
2024/03/05 08:22:54;;;;;;;42.40;24.20;;;;;;;8.00;58.91;99520.28;106891;1262;62278;-40
2024/03/05 08:25:22;;;;;;;37.20;23.00;;;;;;;8.19;58.49;99518.50;106952;1267;73388;-40
2024/03/05 08:27:54;;;;;;;40.20;23.60;;;;;;;8.38;57.13;99519.63;106866;1264;68448;-40
2024/03/05 08:30:23;;;;;;;40.10;23.70;;;;;;;8.49;57.06;99516.88;106856;1264;71521;-40
2024/03/05 08:32:52;;;;;;;39.00;24.10;;;;;;;8.58;56.69;99517.00;106845;1264;59515;-41
2024/03/05 08:35:20;;;;;;;37.60;24.10;;;;;;;8.68;56.49;99513.50;106744;1264;59236;-40
2024/03/05 08:37:48;;;;;;;58.80;24.70;;;;;;;8.81;55.87;99509.92;106729;1264;73205;-40
2024/03/05 08:40:17;;;;;;;41.80;23.80;;;;;;;8.96;56.13;99509.50;106770;1269;68124;-40
2024/03/05 08:42:49;;;;;;;36.10;22.50;;;;;;;9.18;55.65;99507.23;106777;1268;72838;-40
2024/03/05 08:45:22;;;;;;;35.50;21.90;;;;;;;9.40;54.20;99511.37;106710;1266;59630;-40
2024/03/05 08:47:53;;;;;;;40.10;22.80;;;;;;;9.56;53.82;99512.32;106738;1269;60119;-40
2024/03/05 08:50:22;;;;;;;41.60;22.70;;;;;;;9.71;53.12;99508.59;106913;1269;70918;-40
2024/03/05 08:52:49;;;;;;;35.90;22.30;;;;;;;9.84;52.48;99512.59;106825;1263;66822;-40
2024/03/05 08:55:17;;;;;;;42.50;24.90;;;;;;;9.91;52.31;99513.41;106836;1268;73867;-40
2024/03/05 08:57:46;;;;;;;37.80;22.40;;;;;;;10.04;51.83;99513.79;106772;1268;59695;-40
2024/03/05 09:00:19;;;;;;;36.80;23.30;;;;;;;10.14;51.90;99513.24;106796;1264;60396;-40
2024/03/05 09:03:08;;;;;;;36.60;24.00;;;;;;;10.29;51.29;99506.02;106668;1263;73495;-40
2024/03/05 09:05:36;;;;;;;40.00;23.70;;;;;;;10.45;50.77;99505.83;106694;1268;68049;-40
2024/03/05 09:08:04;;;;;;;33.90;22.30;;;;;;;10.57;50.61;99500.91;106633;1268;74938;-40
2024/03/05 09:10:33;;;;;;;38.50;23.00;;;;;;;10.69;50.51;99499.06;106718;1264;59308;-40
2024/03/05 09:13:02;;;;;;;32.10;22.10;;;;;;;10.83;49.81;99501.28;106653;1268;59983;-40
2024/03/05 09:15:30;;;;;;;32.70;20.70;;;;;;;10.97;49.38;99495.66;106633;1264;73229;-40
2024/03/05 09:17:58;;;;;;;41.40;23.80;;;;;;;11.08;48.88;99495.23;106670;1264;68190;-40
2024/03/05 09:20:26;;;;;;;34.90;20.90;;;;;;;11.08;48.48;99490.75;106843;1268;74959;-40
2024/03/05 09:22:54;;;;;;;31.60;21.00;;;;;;;11.03;48.60;99490.81;106738;1268;62457;-40
2024/03/05 09:25:21;;;;;;;36.20;23.30;;;;;;;11.08;48.06;99488.89;106770;1268;59407;-40
2024/03/05 09:27:49;;;;;;;38.00;22.00;;;;;;;11.13;48.29;99484.65;106717;1268;71714;-40
2024/03/05 09:30:19;;;;;;;35.10;21.60;;;;;;;11.24;48.39;99485.09;106706;1264;68544;-41
2024/03/05 09:32:46;;;;;;;34.10;21.00;;;;;;;11.41;47.89;99487.16;106772;1270;72860;-41
2024/03/05 09:35:15;;;;;;;32.30;21.00;;;;;;;11.57;47.78;99486.52;107228;1258;59629;-40
2024/03/05 09:37:45;;;;;;;38.20;22.00;;;;;;;11.78;47.20;99481.83;107294;1256;60162;-40
2024/03/05 09:40:20;;;;;;;35.20;22.80;;;;;;;11.93;46.77;99481.91;107216;1258;73183;-41
2024/03/05 09:42:48;;;;;;;33.90;21.50;;;;;;;12.08;46.24;99480.67;107112;1257;65540;-40
2024/03/05 09:45:17;;;;;;;28.10;20.80;;;;;;;12.22;45.96;99482.03;107205;1257;71483;-40
2024/03/05 09:47:46;;;;;;;33.30;21.20;;;;;;;12.29;45.79;99481.90;107279;1258;60179;-41
2024/03/05 09:50:14;;;;;;;35.60;20.30;;;;;;;12.41;45.63;99481.30;107193;1257;59669;-41
2024/03/05 09:52:43;;;;;;;31.20;19.30;;;;;;;12.57;44.96;99479.86;107041;1257;73499;-39
2024/03/05 09:55:12;;;;;;;31.20;19.70;;;;;;;12.70;44.59;99476.99;107121;1261;66446;-40
2024/03/05 09:57:40;;;;;;;32.00;20.90;;;;;;;12.81;44.24;99474.40;107289;1258;71468;-40
2024/03/05 10:00:15;;;;;;;36.10;22.20;;;;;;;12.88;43.74;99479.38;107239;1257;59547;-39
2024/03/05 10:02:50;;;;;;;32.20;22.00;;;;;;;12.91;43.75;99475.23;107164;1263;59655;-39
2024/03/05 10:05:19;;;;;;;34.00;22.10;;;;;;;12.96;43.43;99473.34;107308;1260;73207;-39
2024/03/05 10:07:48;;;;;;;38.40;22.50;;;;;;;12.95;43.60;99470.05;107299;1261;67088;-40
2024/03/05 10:10:18;;;;;;;40.30;23.10;;;;;;;12.96;43.82;99469.74;107227;1261;72834;-40
2024/03/05 10:12:45;;;;;;;34.80;22.30;;;;;;;13.02;43.65;99463.52;107213;1257;59256;-40
2024/03/05 10:15:20;;;;;;;32.10;23.40;;;;;;;13.12;43.28;99463.24;107206;1260;60350;-40
2024/03/05 10:17:50;;;;;;;43.20;24.60;;;;;;;13.07;43.27;99460.92;107260;1257;73400;-40
2024/03/05 10:20:29;;;;;;;37.30;23.00;;;;;;;12.97;43.42;99457.24;107219;1258;70222;-40
2024/03/05 10:22:57;;;;;;;31.80;22.10;;;;;;;12.92;43.40;99457.42;107262;1260;72799;-40
2024/03/05 10:25:27;;;;;;;34.10;22.70;;;;;;;12.82;43.54;99453.81;107226;1257;59270;-40
2024/03/05 10:27:55;;;;;;;36.40;22.70;;;;;;;12.77;43.78;99450.19;107284;1257;59590;-40
2024/03/05 10:30:25;;;;;;;35.20;22.20;;;;;;;12.75;43.64;99449.53;107330;1257;71957;-40
2024/03/05 10:32:56;;;;;;;35.90;21.70;;;;;;;12.74;43.78;99450.30;107372;1257;66523;-40
2024/03/05 10:35:25;;;;;;;38.00;23.90;;;;;;;12.82;43.28;99445.96;107247;1261;74880;-40
2024/03/05 10:38:08;;;;;;;36.50;21.80;;;;;;;12.75;43.22;99439.13;107240;1257;59673;-40
2024/03/05 10:40:37;;;;;;;33.10;22.50;;;;;;;12.88;43.45;99445.17;107138;1258;60888;-40
2024/03/05 10:43:07;;;;;;;32.30;22.30;;;;;;;13.08;43.63;99445.16;107075;1257;74018;-40
2024/03/05 10:45:40;;;;;;;33.60;23.00;;;;;;;13.40;42.85;99441.98;107157;1257;67186;-40
2024/03/05 10:48:11;;;;;;;32.80;22.70;;;;;;;13.66;41.96;99438.86;107204;1257;71898;-40
2024/03/05 10:50:39;;;;;;;33.50;23.90;;;;;;;13.78;41.23;99434.80;107226;1257;62401;-40
2024/03/05 10:53:09;;;;;;;39.00;23.90;;;;;;;13.77;41.65;99431.30;107172;1257;62150;-40
2024/03/05 10:55:37;;;;;;;34.30;23.20;;;;;;;13.82;41.38;99433.77;107145;1258;73967;-40
2024/03/05 10:58:19;;;;;;;34.40;23.70;;;;;;;13.97;41.41;99426.52;107171;1258;66810;-40
2024/03/05 11:00:47;;;;;;;34.00;24.00;;;;;;;14.19;40.70;99419.96;107116;1263;71629;-41
2024/03/05 11:03:16;;;;;;;35.00;22.80;;;;;;;14.31;40.60;99422.90;107237;1257;59579;-41
2024/03/05 11:05:50;;;;;;;36.90;23.30;;;;;;;14.44;40.04;99419.17;107092;1257;60365;-40
2024/03/05 11:08:24;;;;;;;36.20;24.00;;;;;;;14.62;40.02;99419.48;107111;1257;72639;-41
2024/03/05 11:11:06;;;;;;;36.00;23.60;;;;;;;14.72;39.50;99413.34;107204;1257;68024;-41
2024/03/05 11:13:35;;;;;;;35.10;23.00;;;;;;;14.60;39.46;99411.44;107170;1260;72589;-41
2024/03/05 11:16:06;;;;;;;35.20;22.50;;;;;;;14.35;39.43;99412.80;107153;1257;61427;-40
2024/03/05 11:18:35;;;;;;;30.10;21.70;;;;;;;14.02;39.45;99412.92;107085;1257;60402;-41
2024/03/05 11:21:08;;;;;;;30.50;20.30;;;;;;;13.71;40.41;99410.54;107225;1260;76054;-40
2024/03/05 11:23:57;;;;;;;30.20;20.10;;;;;;;13.53;40.93;99410.50;107265;1257;68634;-40
2024/03/05 11:26:26;;;;;;;30.20;18.80;;;;;;;13.39;40.57;99413.73;107217;1261;72842;-41
2024/03/05 11:29:20;;;;;;;30.80;18.80;;;;;;;13.22;40.53;99409.77;107170;1256;62263;-41
2024/03/05 11:31:47;;;;;;;28.20;18.40;;;;;;;13.02;40.35;99415.08;107237;1260;61065;-40
2024/03/05 11:34:17;;;;;;;25.10;18.30;;;;;;;12.83;40.72;99410.30;107231;1257;72221;-40